Time,TemperatureF,DewpointF,PressureIn,WindDirection,WindDirectionDegrees,WindSpeedMPH,WindSpeedGustMPH,Humidity,HourlyPrecipIn,Conditions,Clouds,dailyrainin,SoftwareType,DateUTC
2013-01-13 00:28:00,26.4,22.7,30.05,NNW,338,0.0,0.0,86,0.00,,,0.00,WUHU216HW,2013-01-12 23:28:00,
2013-01-13 00:34:00,26.2,22.5,30.05,WNW,293,0.0,0.0,86,0.00,,,0.00,WUHU216HW,2013-01-12 23:34:00,
2013-01-13 13:21:00,29.1,25.1,30.01,NNE,23,1.1,1.1,85,0.00,,,0.00,WUHU216HW,2013-01-13 12:21:00,
2013-01-13 13:26:00,29.1,25.1,30.01,NE,45,0.0,3.5,85,0.00,,,0.00,WUHU216HW,2013-01-13 12:26:00,
2013-01-13 13:31:00,29.1,25.1,30.01,NE,45,0.0,3.5,85,0.00,,,0.00,WUHU216HW,2013-01-13 12:31:00,
2013-01-13 13:36:00,29.1,25.1,30.01,NE,45,2.4,2.9,85,0.00,,,0.00,WUHU216HW,2013-01-13 12:36:00,
2013-01-13 13:41:00,29.1,25.1,30.01,NE,45,2.2,3.8,85,0.00,,,0.00,WUHU216HW,2013-01-13 12:41:00,
2013-01-13 13:46:00,29.1,25.1,30.01,North,0,3.3,3.8,85,0.00,,,0.00,WUHU216HW,2013-01-13 12:46:00,
2013-01-13 13:52:00,28.9,24.9,30.01,ENE,68,0.0,6.2,85,0.00,,,0.00,WUHU216HW,2013-01-13 12:52:00,
2013-01-13 13:58:00,29.1,25.1,30.02,East,90,1.1,6.2,85,0.00,,,0.00,WUHU216HW,2013-01-13 12:58:00,
2013-01-13 14:03:00,29.1,25.1,30.02,NNE,23,3.8,4.2,85,0.00,,,0.00,WUHU216HW,2013-01-13 13:03:00,
2013-01-13 14:08:00,29.1,25.1,30.02,ENE,68,3.8,6.2,85,0.00,,,0.00,WUHU216HW,2013-01-13 13:08:00,
2013-01-13 14:13:00,29.1,24.8,30.02,ENE,68,5.1,6.2,84,0.00,,,0.00,WUHU216HW,2013-01-13 13:13:00,
2013-01-13 14:18:00,29.1,25.1,30.02,ENE,68,0.0,5.1,85,0.00,,,0.00,WUHU216HW,2013-01-13 13:18:00,
2013-01-13 14:23:00,29.4,25.2,30.02,East,90,0.0,6.4,84,0.00,,,0.00,WUHU216HW,2013-01-13 13:23:00,
2013-01-13 14:28:00,29.3,25.0,30.02,ENE,68,0.8,6.4,84,0.00,,,0.00,WUHU216HW,2013-01-13 13:28:00,
2013-01-13 14:33:00,29.3,25.0,30.03,NE,45,3.1,3.1,84,0.00,,,0.00,WUHU216HW,2013-01-13 13:33:00,
2013-01-13 14:38:00,29.3,25.0,30.03,NNW,338,0.0,11.4,84,0.00,,,0.00,WUHU216HW,2013-01-13 13:38:00,
2013-01-13 14:43:00,29.3,25.0,30.03,ENE,68,0.0,11.4,84,0.00,,,0.00,WUHU216HW,2013-01-13 13:43:00,
2013-01-13 14:48:00,29.3,25.0,30.03,ESE,113,9.1,9.1,84,0.00,,,0.00,WUHU216HW,2013-01-13 13:48:00,
2013-01-13 14:53:00,29.3,25.0,30.04,East,90,1.1,9.1,84,0.00,,,0.00,WUHU216HW,2013-01-13 13:53:00,
2013-01-13 14:58:00,29.3,24.8,30.03,ENE,68,2.6,8.2,84,0.00,,,0.00,WUHU216HW,2013-01-13 13:58:00,
2013-01-13 15:03:00,29.3,25.0,30.04,NE,45,0.0,4.9,84,0.00,,,0.00,WUHU216HW,2013-01-13 14:03:00,
2013-01-13 15:08:00,29.1,24.5,30.04,ESE,113,6.0,8.2,83,0.00,,,0.00,WUHU216HW,2013-01-13 14:08:00,
2013-01-13 15:13:00,29.1,24.5,30.04,NE,45,5.3,8.2,83,0.00,,,0.00,WUHU216HW,2013-01-13 14:13:00,
2013-01-13 15:18:00,29.1,24.5,30.04,ENE,68,3.1,6.7,83,0.00,,,0.00,WUHU216HW,2013-01-13 14:18:00,
2013-01-13 15:24:00,29.1,24.5,30.04,ESE,113,8.9,8.9,83,0.00,,,0.00,WUHU216HW,2013-01-13 14:24:00,
2013-01-13 15:29:00,29.1,24.5,30.04,East,90,1.1,8.9,83,0.00,,,0.00,WUHU216HW,2013-01-13 14:29:00,
2013-01-13 15:34:00,29.1,24.5,30.04,NE,45,0.0,7.6,83,0.00,,,0.00,WUHU216HW,2013-01-13 14:34:00,
2013-01-13 15:39:00,29.1,24.5,30.03,North,0,2.2,7.6,83,0.00,,,0.00,WUHU216HW,2013-01-13 14:39:00,
2013-01-13 15:44:00,28.9,24.4,30.04,East,90,8.0,8.0,83,0.00,,,0.00,WUHU216HW,2013-01-13 14:44:00,
2013-01-13 15:49:00,28.9,24.4,30.04,East,90,0.6,8.0,83,0.00,,,0.00,WUHU216HW,2013-01-13 14:49:00,
2013-01-13 15:54:00,28.9,24.4,30.04,ESE,113,2.6,6.4,83,0.00,,,0.00,WUHU216HW,2013-01-13 14:54:00,
2013-01-13 15:59:00,28.7,24.2,30.04,NE,45,0.0,5.1,83,0.00,,,0.00,WUHU216HW,2013-01-13 14:59:00,
2013-01-13 16:04:00,28.9,24.4,30.04,East,90,7.8,7.8,83,0.00,,,0.00,WUHU216HW,2013-01-13 15:04:00,
2013-01-13 16:09:00,28.7,24.2,30.04,East,90,0.0,7.8,83,0.00,,,0.00,WUHU216HW,2013-01-13 15:09:00,
2013-01-13 16:14:00,28.7,24.2,30.04,ENE,68,2.2,8.0,83,0.00,,,0.00,WUHU216HW,2013-01-13 15:14:00,
2013-01-13 16:19:00,28.7,24.2,30.04,NE,45,0.0,8.0,83,0.00,,,0.00,WUHU216HW,2013-01-13 15:19:00,
2013-01-13 16:24:00,28.7,24.2,30.04,East,90,6.7,8.9,83,0.00,,,0.00,WUHU216HW,2013-01-13 15:24:00,
2013-01-13 16:29:00,28.7,24.2,30.05,NNE,23,0.0,8.9,83,0.00,,,0.00,WUHU216HW,2013-01-13 15:29:00,
2013-01-13 16:34:00,28.7,24.2,30.05,ESE,113,2.0,8.5,83,0.00,,,0.00,WUHU216HW,2013-01-13 15:34:00,
2013-01-13 16:39:00,28.7,24.2,30.05,SE,135,0.0,7.3,83,0.00,,,0.00,WUHU216HW,2013-01-13 15:39:00,
2013-01-13 16:44:00,28.7,24.2,30.05,ESE,113,5.1,7.3,83,0.00,,,0.00,WUHU216HW,2013-01-13 15:44:00,
2013-01-13 16:49:00,28.7,24.2,30.05,East,90,4.4,6.0,83,0.00,,,0.00,WUHU216HW,2013-01-13 15:49:00,
2013-01-13 16:54:00,28.5,24.5,30.05,SE,135,0.0,6.2,84,0.00,,,0.00,WUHU216HW,2013-01-13 15:54:00,
2013-01-13 16:59:00,28.5,24.3,30.06,East,90,3.8,6.2,84,0.00,,,0.00,WUHU216HW,2013-01-13 15:59:00,
2013-01-13 17:04:00,28.5,24.3,30.07,East,90,1.1,3.8,84,0.00,,,0.00,WUHU216HW,2013-01-13 16:04:00,
2013-01-13 17:09:00,28.4,24.1,30.07,ENE,68,2.6,5.8,84,0.00,,,0.00,WUHU216HW,2013-01-13 16:09:00,
2013-01-13 17:14:00,28.2,23.9,30.07,East,90,4.0,5.8,84,0.00,,,0.00,WUHU216HW,2013-01-13 16:14:00,
2013-01-13 17:19:00,28.0,24.0,30.08,NE,45,3.1,4.0,85,0.00,,,0.00,WUHU216HW,2013-01-13 16:19:00,
2013-01-13 17:24:00,28.0,24.0,30.07,ENE,68,5.8,5.8,85,0.00,,,0.00,WUHU216HW,2013-01-13 16:24:00,
2013-01-13 17:29:00,28.0,24.0,30.08,ESE,113,1.3,5.8,85,0.00,,,0.00,WUHU216HW,2013-01-13 16:29:00,
2013-01-13 17:34:00,27.6,23.7,30.09,ESE,113,0.0,3.8,85,0.00,,,0.00,WUHU216HW,2013-01-13 16:34:00,
2013-01-13 17:39:00,27.6,24.0,30.09,NE,45,0.0,4.6,86,0.00,,,0.00,WUHU216HW,2013-01-13 16:39:00,
2013-01-13 17:44:00,27.6,24.0,30.09,SE,135,1.7,4.6,86,0.00,,,0.00,WUHU216HW,2013-01-13 16:44:00,
2013-01-13 17:49:00,27.6,24.0,30.09,NE,45,1.5,3.1,86,0.00,,,0.00,WUHU216HW,2013-01-13 16:49:00,
2013-01-13 17:54:00,27.5,23.8,30.09,SE,135,1.5,3.3,86,0.00,,,0.00,WUHU216HW,2013-01-13 16:54:00,
2013-01-13 17:59:00,27.5,24.1,30.08,ENE,68,1.3,5.8,87,0.00,,,0.00,WUHU216HW,2013-01-13 16:59:00,
2013-01-13 18:04:00,27.5,24.1,30.09,NE,45,0.0,5.8,87,0.00,,,0.00,WUHU216HW,2013-01-13 17:04:00,
2013-01-13 18:09:00,27.5,24.1,30.09,North,0,2.2,4.6,87,0.00,,,0.00,WUHU216HW,2013-01-13 17:09:00,
2013-01-13 18:14:00,27.5,24.1,30.09,ENE,68,0.0,3.3,87,0.00,,,0.00,WUHU216HW,2013-01-13 17:14:00,
2013-01-13 18:19:00,27.3,23.9,30.09,ENE,68,2.6,3.3,87,0.00,,,0.00,WUHU216HW,2013-01-13 17:19:00,
2013-01-13 18:24:00,27.3,23.9,30.09,North,0,1.3,4.4,87,0.00,,,0.00,WUHU216HW,2013-01-13 17:24:00,
2013-01-13 18:29:00,27.3,23.9,30.08,NE,45,3.8,4.4,87,0.00,,,0.00,WUHU216HW,2013-01-13 17:29:00,
2013-01-13 18:34:00,27.3,23.9,30.09,North,0,1.1,3.8,87,0.00,,,0.00,WUHU216HW,2013-01-13 17:34:00,
2013-01-13 18:39:00,27.1,24.0,30.09,NNE,23,0.0,4.9,88,0.00,,,0.00,WUHU216HW,2013-01-13 17:39:00,
2013-01-13 18:44:00,27.1,24.0,30.08,NE,45,5.1,5.1,88,0.00,,,0.00,WUHU216HW,2013-01-13 17:44:00,
2013-01-13 18:49:00,27.1,24.0,30.08,East,90,0.0,5.1,88,0.00,,,0.00,WUHU216HW,2013-01-13 17:49:00,
2013-01-13 18:54:00,27.1,24.0,30.07,NE,45,0.0,4.9,88,0.00,,,0.00,WUHU216HW,2013-01-13 17:54:00,
2013-01-13 18:59:00,27.1,24.0,30.07,ENE,68,0.0,4.9,88,0.00,,,0.00,WUHU216HW,2013-01-13 17:59:00,
2013-01-13 19:04:00,27.1,24.0,30.06,NE,45,0.0,4.0,88,0.00,,,0.00,WUHU216HW,2013-01-13 18:04:00,
2013-01-13 19:09:00,27.1,24.0,30.06,NNE,23,0.0,2.6,88,0.00,,,0.00,WUHU216HW,2013-01-13 18:09:00,
2013-01-13 19:14:00,27.1,24.0,30.06,NE,45,2.0,5.1,88,0.00,,,0.00,WUHU216HW,2013-01-13 18:14:00,
2013-01-13 19:19:00,27.1,24.0,30.06,NE,45,0.0,5.1,88,0.00,,,0.00,WUHU216HW,2013-01-13 18:19:00,
2013-01-13 19:24:00,27.1,24.0,30.06,NNW,338,1.3,5.1,88,0.00,,,0.00,WUHU216HW,2013-01-13 18:24:00,
2013-01-13 19:30:00,27.1,24.0,30.05,North,0,1.7,3.5,88,0.00,,,0.00,WUHU216HW,2013-01-13 18:30:00,
2013-01-13 19:35:00,27.1,24.0,30.05,NE,45,0.0,3.5,88,0.00,,,0.00,WUHU216HW,2013-01-13 18:35:00,
2013-01-13 19:40:00,27.1,24.0,30.05,ENE,68,0.0,3.5,88,0.00,,,0.00,WUHU216HW,2013-01-13 18:40:00,
2013-01-13 19:45:00,27.1,24.0,30.04,North,0,3.5,4.4,88,0.00,,,0.00,WUHU216HW,2013-01-13 18:45:00,
2013-01-13 19:50:00,26.9,24.0,30.04,North,0,0.0,4.4,88,0.00,,,0.00,WUHU216HW,2013-01-13 18:50:00,
2013-01-13 19:55:00,26.9,23.8,30.03,ENE,68,0.0,2.2,88,0.00,,,0.00,WUHU216HW,2013-01-13 18:55:00,
2013-01-13 20:00:00,26.9,23.8,30.04,NNE,23,1.1,2.6,88,0.00,,,0.00,WUHU216HW,2013-01-13 19:00:00,
2013-01-13 20:05:00,26.9,23.8,30.04,NE,45,0.0,2.6,88,0.00,,,0.00,WUHU216HW,2013-01-13 19:05:00,
2013-01-13 20:10:00,26.9,23.8,30.04,NNE,23,3.5,3.5,88,0.00,,,0.00,WUHU216HW,2013-01-13 19:10:00,
2013-01-13 20:15:00,26.9,23.8,30.04,NNE,23,0.0,3.5,88,0.00,,,0.00,WUHU216HW,2013-01-13 19:15:00,
2013-01-13 20:20:00,26.9,23.8,30.04,North,0,0.0,2.9,88,0.00,,,0.00,WUHU216HW,2013-01-13 19:20:00,